This is the latest recevied weather packets stored in our database for station/object IN3BXS. If no packets are shown the sender has not sent any weather packets the latest 10 day(s).
| Time | Temp. | Humidity | Pressure | Rain* | Wind** | Luminosity | Snow |
|---|---|---|---|---|---|---|---|
| 1777734025 | 17.78° C | 18% | 1015.5 hPa | 0 mm | - | - | - |
| 1777732226 | 18.33° C | 18% | 1015.3 hPa | 0 mm | - | - | - |
| 1777730425 | 18.89° C | 18% | 1015.1 hPa | 0 mm | - | - | - |
| 1777728626 | 18.89° C | 18% | 1016.2 hPa | 0 mm | - | - | - |
| 1777726826 | 18.89° C | 18% | 1016.2 hPa | 0 mm | - | - | - |
| 1777725027 | 18.33° C | 18% | 1016.4 hPa | 0 mm | - | - | - |
| 1777723228 | 18.33° C | 18% | 1017.6 hPa | 0 mm | - | - | - |
| 1777721497 | 17.78° C | 21% | 1017.9 hPa | 0 mm | - | - | - |
| 1777721426 | 17.78° C | 21% | 1017.9 hPa | 0 mm | - | - | - |
| 1777719626 | 17.22° C | 18% | 1018.2 hPa | 0 mm | - | - | - |
| 1777717826 | 16.67° C | 21% | 1019.5 hPa | 0 mm | - | - | - |
| 1777714227 | 15.56° C | 22% | 1019.9 hPa | 0 mm | - | - | - |
| 1777712425 | 15° C | 22% | 1020.2 hPa | 0 mm | - | - | - |
| 1777710625 | 13.89° C | 22% | 1020.7 hPa | 0 mm | - | - | - |
| 1777708825 | 12.78° C | 23% | 1022.2 hPa | 0 mm | - | - | - |
| 1777707026 | 12.22° C | 25% | 1022.6 hPa | 0 mm | - | - | - |
| 1777705226 | 11.11° C | 26% | 1023 hPa | 0 mm | - | - | - |
| 1777703428 | 10° C | 28% | 1023.5 hPa | 0 mm | - | - | - |
| 1777701625 | 8.33° C | 29% | 1024.3 hPa | 0 mm | - | - | - |
| 1777699826 | 6.11° C | 33% | 1025.3 hPa | 0 mm | - | - | - |
| 1777698025 | 3.33° C | 35% | 1026.5 hPa | 0 mm | - | - | - |
| 1777696225 | 2.78° C | 34% | 1026.7 hPa | 0 mm | - | - | - |
| 1777694426 | 2.78° C | 34% | 1026.8 hPa | 0 mm | - | - | - |
| 1777692626 | 2.78° C | 33% | 1026.7 hPa | 0 mm | - | - | - |
| 1777690826 | 3.33° C | 32% | 1026.6 hPa | 0 mm | - | - | - |
* Rain latest hour (hover to see other rain measurements)
** Current wind speed in m/s (hover to see current wind gust speed)